createdAt,value
2019-06-15T00:02:59.999Z,17.70
2019-06-15T00:06:36.263Z,16.82
2019-06-15T00:10:11.576Z,16.30
2019-06-15T00:13:54.244Z,18.07
2019-06-15T00:17:30.306Z,19.90
2019-06-15T00:21:12.897Z,17.85
2019-06-15T00:24:48.499Z,19.10
2019-06-15T00:28:31.117Z,18.50
2019-06-15T00:32:06.659Z,20.55
2019-06-15T00:35:42.648Z,24.25
2019-06-15T00:39:25.309Z,23.00
2019-06-15T00:43:01.415Z,22.75
2019-06-15T00:46:24.738Z,20.95
2019-06-15T00:50:00.160Z,21.40
2019-06-15T00:56:53.438Z,20.45
2019-06-15T01:00:17.138Z,21.80
2019-06-15T01:03:56.913Z,21.73
2019-06-15T01:19:21.522Z,21.57
2019-06-15T01:22:57.167Z,22.22
2019-06-15T01:30:27.881Z,24.55
2019-06-15T01:34:10.899Z,24.37
2019-06-15T01:37:48.204Z,22.17
2019-06-15T01:41:30.786Z,23.90
2019-06-15T01:45:07.000Z,25.08
2019-06-15T01:48:42.240Z,25.82
2019-06-15T01:52:25.280Z,24.25
2019-06-15T01:56:01.403Z,24.50
2019-06-15T01:59:43.971Z,27.00
2019-06-15T02:03:19.474Z,26.07
2019-06-15T02:07:02.075Z,25.68
2019-06-15T02:10:37.824Z,27.87
2019-06-15T02:14:20.421Z,26.68
2019-06-15T02:17:55.825Z,28.65
2019-06-15T02:21:20.008Z,27.58
2019-06-15T02:24:55.369Z,30.70
2019-06-15T02:28:37.960Z,28.60
2019-06-15T02:32:13.603Z,27.62
2019-06-15T02:35:36.873Z,26.75
2019-06-15T02:39:12.889Z,27.42
2019-06-15T02:42:55.472Z,27.25
2019-06-15T02:46:31.588Z,30.20
2019-06-15T02:50:14.129Z,29.87
2019-06-15T02:53:50.271Z,33.18
2019-06-15T02:57:32.994Z,33.13
2019-06-15T03:01:15.665Z,35.20
2019-06-15T03:04:58.759Z,38.23
2019-06-15T03:08:34.514Z,37.30
2019-06-15T03:12:09.830Z,37.65
2019-06-15T03:15:52.439Z,40.75
2019-06-15T03:19:27.847Z,39.85
2019-06-15T03:23:10.383Z,37.38
2019-06-15T03:26:46.575Z,39.95
2019-06-15T03:30:29.115Z,38.70
2019-06-15T03:34:04.802Z,40.17
2019-06-15T03:37:47.375Z,36.73
2019-06-15T03:41:22.758Z,38.53
2019-06-15T03:45:05.545Z,38.67
2019-06-15T03:48:41.524Z,35.75
2019-06-15T03:52:17.004Z,36.33
2019-06-15T03:55:59.762Z,42.35
2019-06-15T03:59:35.210Z,38.23
2019-06-15T04:03:10.672Z,42.50
2019-06-15T04:06:53.316Z,42.67
2019-06-15T04:10:28.602Z,41.65
2019-06-15T04:14:04.179Z,40.00
2019-06-15T04:17:47.111Z,37.88
2019-06-15T04:21:26.525Z,38.83
2019-06-15T04:24:49.695Z,36.30
2019-06-15T04:28:26.053Z,38.33
2019-06-15T04:32:09.104Z,38.73
2019-06-15T04:35:44.764Z,39.45
2019-06-15T04:39:27.467Z,38.73
2019-06-15T04:43:03.646Z,40.50
2019-06-15T04:46:46.347Z,36.45
2019-06-15T04:50:22.456Z,42.83
2019-06-15T04:54:05.358Z,39.95
2019-06-15T04:57:41.422Z,41.98
2019-06-15T05:01:24.431Z,38.42
2019-06-15T05:05:02.773Z,39.50
2019-06-15T05:08:26.559Z,36.17
2019-06-15T05:12:09.570Z,37.73
2019-06-15T05:23:42.500Z,41.15
2019-06-15T05:27:18.075Z,40.48
2019-06-15T05:30:53.714Z,41.80
2019-06-15T05:34:38.679Z,43.08
2019-06-15T05:38:52.414Z,43.68
2019-06-15T05:42:35.832Z,47.15
2019-06-15T05:46:13.529Z,43.52
2019-06-15T05:49:49.070Z,45.75
2019-06-15T05:53:32.091Z,44.90
2019-06-15T05:57:21.569Z,44.90
2019-06-15T06:05:20.915Z,48.08
2019-06-15T06:08:59.153Z,43.13
2019-06-15T06:12:42.320Z,46.18
2019-06-15T06:16:18.575Z,45.35
2019-06-15T06:19:57.051Z,41.92
2019-06-15T06:23:40.204Z,40.67
2019-06-15T06:27:16.037Z,41.37
2019-06-15T06:30:59.962Z,38.42
2019-06-15T06:34:36.880Z,39.27
2019-06-15T06:38:19.626Z,38.33
2019-06-15T06:42:02.491Z,42.80
2019-06-15T06:45:38.711Z,41.60
2019-06-15T06:53:15.442Z,42.85
2019-06-15T06:56:58.332Z,41.45
2019-06-15T07:00:37.816Z,38.60
2019-06-15T07:04:20.497Z,35.10
2019-06-15T07:07:55.765Z,32.65
2019-06-15T07:11:32.161Z,29.37
2019-06-15T07:15:15.152Z,29.20
2019-06-15T07:18:51.287Z,26.50
2019-06-15T07:22:26.636Z,25.45
2019-06-15T07:26:09.664Z,27.35
2019-06-15T07:29:45.558Z,25.97
2019-06-15T07:33:28.131Z,25.20
2019-06-15T07:37:04.371Z,23.02
2019-06-15T07:40:47.127Z,21.05
2019-06-15T07:44:23.207Z,20.88
2019-06-15T07:48:06.113Z,18.77
2019-06-15T07:51:42.079Z,17.62
2019-06-15T07:55:24.786Z,17.85
2019-06-15T07:59:00.077Z,16.00
2019-06-15T08:02:43.074Z,15.70
2019-06-15T08:06:18.938Z,17.70
2019-06-15T08:09:54.191Z,17.35
2019-06-15T08:13:39.601Z,14.23
2019-06-15T08:17:15.055Z,13.70
2019-06-15T08:20:57.610Z,12.60
2019-06-15T08:24:33.117Z,12.40
2019-06-15T08:28:15.753Z,13.03
2019-06-15T08:31:51.864Z,12.58
2019-06-15T08:35:27.505Z,12.40
2019-06-15T08:39:10.282Z,12.33
2019-06-15T08:42:46.531Z,14.63
2019-06-15T08:46:29.098Z,15.60
2019-06-15T08:50:04.397Z,15.95
2019-06-15T08:53:47.157Z,18.98
2019-06-15T08:57:22.618Z,21.57
2019-06-15T09:01:05.273Z,22.95
2019-06-15T09:04:40.796Z,22.42
2019-06-15T09:08:23.430Z,17.60
2019-06-15T09:11:59.551Z,19.35
2019-06-15T09:20:01.581Z,18.95
2019-06-15T09:23:37.710Z,19.90
2019-06-15T09:27:20.543Z,19.92
2019-06-15T09:30:55.738Z,21.20
2019-06-15T09:34:38.475Z,21.73
2019-06-15T09:38:13.830Z,19.67
2019-06-15T09:41:56.391Z,20.65
2019-06-15T09:45:33.070Z,19.07
2019-06-15T09:49:16.018Z,19.90
2019-06-15T09:52:51.453Z,19.62
2019-06-15T09:56:27.088Z,21.10
2019-06-15T10:00:03.046Z,18.80
2019-06-15T10:03:45.886Z,16.12
2019-06-15T10:07:21.370Z,16.70
2019-06-15T10:10:56.685Z,11.95
2019-06-15T10:14:20.878Z,11.28
2019-06-15T10:17:44.428Z,10.00
2019-06-15T10:21:20.474Z,6.60
2019-06-15T10:25:03.275Z,5.17
2019-06-15T10:28:40.663Z,5.40
2019-06-15T10:32:04.190Z,4.40
2019-06-15T10:35:40.375Z,3.12
2019-06-15T10:39:22.927Z,3.05
2019-06-15T10:42:58.933Z,3.08
2019-06-15T10:46:22.038Z,3.40
2019-06-15T10:49:58.052Z,3.25
2019-06-15T10:53:34.439Z,3.02
2019-06-15T10:57:11.432Z,2.80
2019-06-15T11:00:54.147Z,2.42
2019-06-15T11:04:30.156Z,2.17
2019-06-15T11:08:12.744Z,2.12
2019-06-15T11:11:48.758Z,2.50
2019-06-15T11:15:52.624Z,2.50
2019-06-15T11:19:27.894Z,2.42
2019-06-15T11:27:09.295Z,2.20
2019-06-15T11:30:46.358Z,2.15
2019-06-15T11:34:32.756Z,3.90
2019-06-15T11:38:08.037Z,3.62
2019-06-15T11:41:50.848Z,4.42
2019-06-15T11:45:26.115Z,3.58
2019-06-15T11:49:08.840Z,3.52
2019-06-15T11:52:44.109Z,3.60
2019-06-15T11:56:27.185Z,3.90
2019-06-15T12:00:03.102Z,3.58
2019-06-15T12:03:46.117Z,3.00
2019-06-15T12:07:21.440Z,3.40
2019-06-15T12:11:04.245Z,2.75
2019-06-15T12:14:40.531Z,2.95
2019-06-15T12:18:23.125Z,3.37
2019-06-15T12:21:58.787Z,3.10
2019-06-15T12:25:34.280Z,2.22
2019-06-15T12:29:09.768Z,2.42
2019-06-15T12:32:52.859Z,2.37
2019-06-15T12:36:28.797Z,3.02
2019-06-15T12:40:23.660Z,2.65
2019-06-15T12:44:06.337Z,2.90
2019-06-15T12:47:42.349Z,2.75
2019-06-15T12:51:25.138Z,3.15
2019-06-15T12:55:00.751Z,2.70
2019-06-15T12:58:43.957Z,3.10
2019-06-15T13:02:19.367Z,3.92
2019-06-15T13:06:01.947Z,3.83
2019-06-15T13:09:37.510Z,3.12
2019-06-15T13:13:20.283Z,3.08
2019-06-15T13:16:56.399Z,3.17
2019-06-15T13:20:32.003Z,4.10
2019-06-15T13:24:14.806Z,3.52
2019-06-15T13:27:50.268Z,2.85
2019-06-15T13:31:32.877Z,3.37
2019-06-15T13:35:08.594Z,3.30
2019-06-15T13:38:44.772Z,3.35
2019-06-15T13:42:27.587Z,2.98
2019-06-15T13:46:03.028Z,3.22
2019-06-15T13:49:45.671Z,3.22
2019-06-15T13:53:20.997Z,3.83
2019-06-15T13:57:04.911Z,3.35
2019-06-15T14:00:41.714Z,3.95
2019-06-15T14:04:24.308Z,3.25
2019-06-15T14:07:59.775Z,4.47
2019-06-15T14:11:35.421Z,4.90
2019-06-15T14:15:19.605Z,3.90
2019-06-15T14:18:57.449Z,4.50
2019-06-15T14:22:40.039Z,4.20
2019-06-15T14:26:17.153Z,4.92
2019-06-15T14:29:59.842Z,4.95
2019-06-15T14:33:35.186Z,4.42
2019-06-15T14:37:10.982Z,4.17
2019-06-15T14:40:47.029Z,3.87
2019-06-15T14:44:23.757Z,3.67
2019-06-15T14:48:06.492Z,4.17
2019-06-15T14:51:42.107Z,3.90
2019-06-15T14:55:17.773Z,3.50
2019-06-15T14:58:40.886Z,3.80
2019-06-15T15:02:17.516Z,4.17
2019-06-15T15:06:00.247Z,3.22
2019-06-15T15:09:35.420Z,3.60
2019-06-15T15:13:11.132Z,3.30
2019-06-15T15:16:34.904Z,3.15
2019-06-15T15:20:10.764Z,3.72
2019-06-15T15:23:47.035Z,4.22
2019-06-15T15:27:29.593Z,3.87
2019-06-15T15:31:06.470Z,3.47
2019-06-15T15:34:42.291Z,5.03
2019-06-15T15:38:18.405Z,4.60
2019-06-15T15:42:01.337Z,4.45
2019-06-15T15:45:37.304Z,5.00
2019-06-15T15:49:19.888Z,4.67
2019-06-15T15:52:56.792Z,4.33
2019-06-15T15:56:40.011Z,4.50
2019-06-15T16:00:20.538Z,4.50
2019-06-15T16:03:56.319Z,3.98
2019-06-15T16:07:39.094Z,3.95
2019-06-15T16:11:16.820Z,4.50
2019-06-15T16:14:52.311Z,4.53
2019-06-15T16:18:36.480Z,5.33
2019-06-15T16:22:18.464Z,4.67
2019-06-15T16:26:01.002Z,4.87
2019-06-15T16:29:37.319Z,4.22
2019-06-15T16:33:19.943Z,4.83
2019-06-15T16:36:57.055Z,4.12
2019-06-15T16:40:40.093Z,4.65
2019-06-15T16:44:17.256Z,4.10
2019-06-15T16:48:00.242Z,4.45
2019-06-15T16:51:36.262Z,4.70
2019-06-15T16:55:18.882Z,4.22
2019-06-15T16:58:55.994Z,4.20
2019-06-15T17:02:38.845Z,4.35
2019-06-15T17:06:14.572Z,4.60
2019-06-15T17:09:57.157Z,4.70
2019-06-15T17:13:32.627Z,5.42
2019-06-15T17:17:17.363Z,5.55
2019-06-15T17:20:58.796Z,5.75
2019-06-15T17:24:41.415Z,4.95
2019-06-15T17:28:17.172Z,4.50
2019-06-15T17:31:40.795Z,3.85
2019-06-15T17:35:17.091Z,4.70
2019-06-15T17:38:59.720Z,4.65
2019-06-15T17:42:36.893Z,3.98
2019-06-15T17:46:19.746Z,4.08
2019-06-15T17:49:56.194Z,3.45
2019-06-15T17:53:39.025Z,4.05
2019-06-15T17:57:14.731Z,4.03
2019-06-15T18:00:57.708Z,3.65
2019-06-15T18:04:41.067Z,4.62
2019-06-15T18:08:26.763Z,4.75
2019-06-15T18:12:21.072Z,4.67
2019-06-15T18:16:06.427Z,4.62
2019-06-15T18:20:01.486Z,4.47
2019-06-15T18:23:46.460Z,5.05
2019-06-15T18:27:41.992Z,13.28
2019-06-15T18:31:26.858Z,5.20
2019-06-15T18:35:21.653Z,14.05
2019-06-15T18:39:06.303Z,7.47
2019-06-15T18:42:42.147Z,13.70
2019-06-15T18:46:27.119Z,5.90
2019-06-15T18:50:09.845Z,5.37
2019-06-15T18:53:52.394Z,6.70
2019-06-15T18:57:27.641Z,4.78
2019-06-15T19:01:10.230Z,4.90
2019-06-15T19:04:49.544Z,4.33
2019-06-15T19:08:30.806Z,4.40
2019-06-15T19:12:07.053Z,3.60
2019-06-15T19:15:49.874Z,4.15
2019-06-15T19:19:27.529Z,5.20
2019-06-15T19:23:10.200Z,4.60
2019-06-15T19:26:49.799Z,5.20
2019-06-15T19:30:26.416Z,5.62
2019-06-15T19:34:09.251Z,4.72
2019-06-15T19:37:47.142Z,4.80
2019-06-15T19:41:29.778Z,4.60
2019-06-15T19:48:48.289Z,5.42
2019-06-15T19:52:35.912Z,5.00
2019-06-15T19:56:26.041Z,6.60
2019-06-15T20:00:07.599Z,6.25
2019-06-15T20:03:50.301Z,5.33
2019-06-15T20:07:26.230Z,6.22
2019-06-15T20:11:09.073Z,6.25
2019-06-15T20:14:46.266Z,7.20
2019-06-15T20:18:29.319Z,6.05
2019-06-15T20:22:01.054Z,6.53
2019-06-15T20:25:43.631Z,5.78
2019-06-15T20:29:18.883Z,6.42
2019-06-15T20:32:56.788Z,5.60
2019-06-15T20:36:32.555Z,6.00
2019-06-15T20:40:08.228Z,7.10
2019-06-15T20:43:46.062Z,8.35
2019-06-15T20:47:28.834Z,7.40
2019-06-15T20:51:09.793Z,8.88
2019-06-15T20:54:42.276Z,8.93
2019-06-15T20:58:26.382Z,8.68
2019-06-15T21:02:08.694Z,10.23
2019-06-15T21:05:51.382Z,10.63
2019-06-15T21:09:27.724Z,9.58
2019-06-15T21:13:10.294Z,12.18
2019-06-15T21:16:46.326Z,11.88
2019-06-15T21:20:29.177Z,12.23
2019-06-15T21:24:06.460Z,11.55
2019-06-15T21:27:49.290Z,12.05
2019-06-15T21:31:26.214Z,12.55
2019-06-15T21:35:01.801Z,12.50
2019-06-15T21:38:46.650Z,13.68
2019-06-15T21:42:28.534Z,12.58
2019-06-15T21:46:11.276Z,12.35
2019-06-15T21:49:47.524Z,12.33
2019-06-15T21:53:30.254Z,12.90
2019-06-15T22:04:29.813Z,13.03
2019-06-15T22:08:06.455Z,15.35
2019-06-15T22:11:49.368Z,14.28
2019-06-15T22:15:26.585Z,15.03
2019-06-15T22:19:02.441Z,14.45
2019-06-15T22:22:47.083Z,14.58
2019-06-15T22:26:33.039Z,16.87
2019-06-15T22:34:38.295Z,16.55
2019-06-15T22:38:13.791Z,14.58
2019-06-15T22:41:56.440Z,16.80
2019-06-15T22:45:31.810Z,15.55
2019-06-15T22:57:06.220Z,17.00
2019-06-15T23:01:02.625Z,17.50
2019-06-15T23:04:47.163Z,16.95
2019-06-15T23:08:42.385Z,18.82
2019-06-15T23:12:25.062Z,18.05
2019-06-15T23:16:02.537Z,18.00
2019-06-15T23:19:46.141Z,16.95
2019-06-15T23:23:42.305Z,16.85
2019-06-15T23:27:25.010Z,16.93
2019-06-15T23:31:02.446Z,16.27
2019-06-15T23:34:38.742Z,15.53
2019-06-15T23:38:15.982Z,17.55
2019-06-15T23:41:58.743Z,17.95
2019-06-15T23:45:36.066Z,17.42
2019-06-15T23:49:11.424Z,17.25
2019-06-15T23:56:47.881Z,20.10
